Time;durP1;ratioP1;P1;durP2;ratioP2;P2;SDS_P1;SDS_P2;PMS_P1;PMS_P2;Temp;Humidity;BMP_temperature;BMP_pressure;BME280_temperature;BME280_humidity;BME280_pressure;Samples;Min_cycle;Max_cycle;Signal;HPM_P1;HPM_P2
2021/12/06 05:02:35;;;;;;;23.90;21.63;;;3.90;99.90;;;;;;5021721;23;21012;-67
2021/12/06 05:05:09;;;;;;;23.30;20.93;;;4.00;99.90;;;;;;4975081;28;20443;-67
2021/12/06 05:07:40;;;;;;;23.77;21.27;;;3.90;99.90;;;;;;4975240;28;20807;-66
2021/12/06 05:10:12;;;;;;;24.27;21.77;;;4.00;99.90;;;;;;4975353;28;20446;-66
2021/12/06 05:12:40;;;;;;;23.00;20.60;;;4.00;99.90;;;;;;4956354;29;20444;-66
2021/12/06 05:15:08;;;;;;;25.00;22.60;;;4.00;99.90;;;;;;4955628;29;20939;-67
2021/12/06 05:17:37;;;;;;;22.00;19.90;;;4.00;99.90;;;;;;4956004;29;20471;-66
2021/12/06 05:20:05;;;;;;;23.07;20.80;;;4.00;99.90;;;;;;4955502;29;20488;-66
2021/12/06 05:22:33;;;;;;;22.17;19.80;;;4.00;99.90;;;;;;4955774;28;20483;-67
2021/12/06 05:25:00;;;;;;;25.53;21.17;;;4.00;99.90;;;;;;4955722;29;20463;-66
2021/12/06 05:27:29;;;;;;;24.70;22.10;;;4.00;99.90;;;;;;4955759;29;20467;-66
2021/12/06 05:30:00;;;;;;;22.30;19.63;;;4.00;99.90;;;;;;4955591;29;20810;-66
2021/12/06 05:32:30;;;;;;;21.80;19.70;;;4.00;99.90;;;;;;4955617;29;20480;-66
2021/12/06 05:35:03;;;;;;;23.40;21.00;;;4.10;99.90;;;;;;4955894;28;20463;-66
2021/12/06 05:37:31;;;;;;;22.50;20.20;;;4.10;99.90;;;;;;4955747;29;20440;-67
2021/12/06 05:39:59;;;;;;;22.63;20.23;;;4.10;99.90;;;;;;4955672;29;20534;-67
2021/12/06 05:42:26;;;;;;;20.43;18.50;;;4.10;99.90;;;;;;4955726;29;20472;-67
2021/12/06 05:44:53;;;;;;;20.30;18.40;;;4.10;99.90;;;;;;4955514;29;21032;-68
2021/12/06 05:47:20;;;;;;;21.60;19.27;;;4.20;99.90;;;;;;4955774;28;20455;-67
2021/12/06 05:49:46;;;;;;;22.77;20.37;;;4.10;99.90;;;;;;4959063;29;20456;-67
2021/12/06 05:52:15;;;;;;;21.83;19.20;;;4.10;99.90;;;;;;4961810;29;20480;-66
2021/12/06 05:54:41;;;;;;;23.10;17.47;;;4.10;99.90;;;;;;4959186;29;20466;-64
2021/12/06 05:57:10;;;;;;;22.13;19.87;;;4.30;99.90;;;;;;4958921;29;20467;-64
2021/12/06 05:59:37;;;;;;;20.63;18.00;;;4.50;99.90;;;;;;4958790;28;20486;-65
2021/12/06 06:02:06;;;;;;;18.83;16.83;;;4.80;99.90;;;;;;4958440;29;20494;-65
2021/12/06 06:04:33;;;;;;;20.23;18.27;;;4.90;99.90;;;;;;4958958;28;20467;-65
2021/12/06 06:07:00;;;;;;;19.17;16.80;;;5.10;99.90;;;;;;4959035;29;20460;-64
2021/12/06 06:09:29;;;;;;;18.67;16.70;;;5.10;99.90;;;;;;4958885;29;20463;-64
2021/12/06 06:11:56;;;;;;;19.57;17.50;;;5.10;99.90;;;;;;4958987;29;20480;-65
2021/12/06 06:14:23;;;;;;;21.40;16.73;;;5.20;99.90;;;;;;4958714;29;20470;-65
2021/12/06 06:16:52;;;;;;;20.40;17.90;;;5.00;99.90;;;;;;4959645;29;20463;-66
2021/12/06 06:19:21;;;;;;;19.70;17.67;;;4.80;99.90;;;;;;4960844;29;20860;-65
2021/12/06 06:21:48;;;;;;;19.77;17.87;;;4.80;99.90;;;;;;4960431;29;20483;-67
2021/12/06 06:24:14;;;;;;;21.20;19.10;;;4.70;99.90;;;;;;4959636;28;20463;-65
2021/12/06 06:26:43;;;;;;;19.47;17.47;;;4.60;99.90;;;;;;4959791;29;20463;-67
2021/12/06 06:29:13;;;;;;;20.17;18.10;;;4.50;99.90;;;;;;4958914;29;20479;-66
2021/12/06 06:31:40;;;;;;;20.47;18.13;;;4.40;99.90;;;;;;4959134;29;20885;-66
2021/12/06 06:34:07;;;;;;;23.30;20.80;;;4.20;99.90;;;;;;4958789;29;20940;-69
2021/12/06 06:36:34;;;;;;;21.70;19.50;;;4.20;99.90;;;;;;4959483;29;20460;-68
2021/12/06 06:39:00;;;;;;;22.30;20.03;;;4.20;99.90;;;;;;4958711;29;20456;-67
2021/12/06 06:41:30;;;;;;;20.87;18.67;;;4.10;99.90;;;;;;4958514;29;20486;-67
2021/12/06 06:43:59;;;;;;;21.93;19.63;;;4.10;99.90;;;;;;4959265;29;20456;-66
2021/12/06 06:46:26;;;;;;;24.33;21.73;;;4.10;99.90;;;;;;4958548;29;20483;-66
2021/12/06 06:48:53;;;;;;;22.33;19.93;;;4.10;99.90;;;;;;4958179;29;20539;-66
2021/12/06 06:51:20;;;;;;;23.17;20.60;;;4.10;99.90;;;;;;4958211;29;20481;-66
2021/12/06 06:53:47;;;;;;;22.93;20.20;;;4.20;99.90;;;;;;4958414;29;20487;-67
2021/12/06 06:56:14;;;;;;;21.63;19.10;;;4.20;99.90;;;;;;4958218;29;20950;-66
2021/12/06 06:58:40;;;;;;;20.80;18.60;;;4.20;99.90;;;;;;4957963;29;20459;-66
2021/12/06 07:01:09;;;;;;;21.20;19.00;;;4.20;99.90;;;;;;4957721;28;20492;-66
2021/12/06 07:03:35;;;;;;;22.83;20.17;;;4.20;99.90;;;;;;4958304;29;20563;-67
2021/12/06 07:06:04;;;;;;;25.63;18.47;;;4.20;99.90;;;;;;4958026;29;20456;-66
2021/12/06 07:08:30;;;;;;;23.77;21.17;;;4.20;99.90;;;;;;4958224;29;20870;-66
2021/12/06 07:10:57;;;;;;;21.50;19.20;;;4.20;99.90;;;;;;4958211;29;20481;-69
2021/12/06 07:13:26;;;;;;;21.80;19.50;;;4.10;99.90;;;;;;4957755;29;20459;-68
2021/12/06 07:15:54;;;;;;;23.13;19.40;;;4.20;99.90;;;;;;4958014;29;20559;-68
2021/12/06 07:18:22;;;;;;;23.17;20.80;;;4.20;99.90;;;;;;4957551;29;20943;-68
2021/12/06 07:20:49;;;;;;;23.33;20.83;;;4.20;99.90;;;;;;4958226;29;20495;-68
2021/12/06 07:23:16;;;;;;;22.80;18.97;;;4.20;99.90;;;;;;4961734;29;20456;-68
2021/12/06 07:25:42;;;;;;;23.00;20.63;;;4.20;99.90;;;;;;4958174;29;20467;-68
2021/12/06 07:28:09;;;;;;;20.83;18.60;;;4.20;99.90;;;;;;4957437;29;20459;-68
2021/12/06 07:30:36;;;;;;;22.70;20.00;;;4.20;99.90;;;;;;4957481;29;20483;-67
2021/12/06 07:33:04;;;;;;;21.80;19.50;;;4.30;99.90;;;;;;4957254;29;20440;-67
2021/12/06 07:35:33;;;;;;;24.23;19.07;;;4.20;99.90;;;;;;4957347;29;20455;-67
2021/12/06 07:38:02;;;;;;;21.50;19.30;;;4.20;99.90;;;;;;4957045;29;20456;-67
2021/12/06 07:40:30;;;;;;;20.63;18.40;;;4.20;99.90;;;;;;4958415;29;20464;-67
2021/12/06 07:42:57;;;;;;;19.70;17.60;;;4.20;99.90;;;;;;4957221;29;20456;-67
2021/12/06 07:45:24;;;;;;;19.10;17.20;;;4.20;99.90;;;;;;4957156;29;20464;-67
2021/12/06 07:47:51;;;;;;;21.17;17.60;;;4.20;99.90;;;;;;4956759;29;20460;-67
2021/12/06 07:50:21;;;;;;;21.83;19.53;;;4.20;99.90;;;;;;4956865;29;20444;-67
2021/12/06 07:52:51;;;;;;;26.10;19.80;;;4.30;99.90;;;;;;4957390;29;20459;-67
2021/12/06 07:55:19;;;;;;;22.00;19.60;;;4.30;99.90;;;;;;4956985;29;20889;-67
2021/12/06 07:57:47;;;;;;;23.47;19.50;;;4.40;99.90;;;;;;4956681;29;20935;-67
2021/12/06 08:00:17;;;;;;;22.87;18.93;;;4.40;99.90;;;;;;4956721;29;20480;-68
2021/12/06 08:02:44;;;;;;;22.33;19.70;;;4.40;99.90;;;;;;4957474;29;20440;-67
2021/12/06 08:07:57;;;;;;;25.13;19.20;;;4.40;99.90;;;;;;4957304;29;20420;-67
2021/12/06 08:10:25;;;;;;;20.50;18.37;;;4.50;99.90;;;;;;4956432;28;20944;-67
2021/12/06 08:12:51;;;;;;;23.03;19.00;;;4.50;99.90;;;;;;4956047;29;20959;-67
2021/12/06 08:15:19;;;;;;;22.17;19.53;;;4.50;99.90;;;;;;4956966;29;20470;-68
2021/12/06 08:17:45;;;;;;;22.77;18.70;;;4.40;99.90;;;;;;4956798;29;20467;-67
2021/12/06 08:20:13;;;;;;;26.27;18.50;;;4.50;99.90;;;;;;4956977;29;20487;-68
2021/12/06 08:22:41;;;;;;;22.83;19.03;;;4.40;99.90;;;;;;4956659;29;20482;-68
2021/12/06 08:25:11;;;;;;;28.90;21.73;;;4.50;99.90;;;;;;4956813;29;20452;-67
2021/12/06 08:27:38;;;;;;;26.57;20.90;;;4.60;99.90;;;;;;4956718;28;20447;-68
2021/12/06 08:30:06;;;;;;;23.53;19.97;;;4.60;99.90;;;;;;4956516;29;20484;-67
2021/12/06 08:32:33;;;;;;;22.03;19.63;;;4.70;99.90;;;;;;4956513;28;20480;-68
2021/12/06 08:35:00;;;;;;;23.43;19.43;;;4.70;99.90;;;;;;4956523;29;20455;-68
2021/12/06 08:37:27;;;;;;;24.87;20.03;;;4.80;99.90;;;;;;4956214;29;20479;-67
2021/12/06 08:39:54;;;;;;;22.67;19.10;;;4.90;99.90;;;;;;4956757;28;20456;-68
2021/12/06 08:42:23;;;;;;;23.37;17.03;;;5.00;99.90;;;;;;4956735;29;20482;-68
2021/12/06 08:44:50;;;;;;;22.80;18.90;;;5.00;99.90;;;;;;4956556;29;20456;-68
2021/12/06 08:47:17;;;;;;;20.00;17.73;;;5.00;99.90;;;;;;4956224;29;20460;-68
2021/12/06 08:49:44;;;;;;;24.37;20.00;;;5.10;99.90;;;;;;4956756;29;20966;-68
2021/12/06 08:52:14;;;;;;;22.13;18.57;;;5.10;99.90;;;;;;4956686;28;20503;-69
2021/12/06 08:54:41;;;;;;;27.30;20.70;;;5.20;99.90;;;;;;4957269;29;20483;-68
2021/12/06 08:57:08;;;;;;;22.50;18.50;;;5.20;99.90;;;;;;4956828;29;20507;-68
2021/12/06 08:59:37;;;;;;;25.43;18.80;;;4.80;99.90;;;;;;4955714;29;20952;-68
2021/12/06 09:02:05;;;;;;;25.43;18.90;;;5.00;99.90;;;;;;4955753;29;20484;-68
2021/12/06 09:04:34;;;;;;;25.43;18.10;;;5.10;99.90;;;;;;4956237;29;20459;-68
2021/12/06 09:07:02;;;;;;;24.30;19.47;;;5.00;99.90;;;;;;4956260;29;20481;-68
2021/12/06 09:09:29;;;;;;;26.93;19.87;;;5.10;99.90;;;;;;4956535;29;20456;-68
2021/12/06 09:11:57;;;;;;;31.13;20.60;;;5.20;99.90;;;;;;4955999;29;20475;-67
2021/12/06 09:14:27;;;;;;;25.40;19.87;;;5.10;99.90;;;;;;4956229;28;20460;-68
2021/12/06 09:16:56;;;;;;;24.73;19.20;;;5.20;99.90;;;;;;4956414;29;20535;-68
2021/12/06 09:19:23;;;;;;;24.50;19.50;;;5.20;99.90;;;;;;4955585;29;20848;-68
2021/12/06 09:21:50;;;;;;;31.87;20.57;;;5.20;99.90;;;;;;4956649;29;20484;-68
2021/12/06 09:24:20;;;;;;;28.07;21.30;;;5.30;99.90;;;;;;4959723;28;20948;-68
2021/12/06 09:26:49;;;;;;;28.10;20.17;;;5.40;99.90;;;;;;4959997;29;20630;-68
2021/12/06 09:29:17;;;;;;;32.80;22.13;;;5.40;99.90;;;;;;4960219;29;20448;-67
2021/12/06 09:31:44;;;;;;;26.37;20.90;;;5.40;99.90;;;;;;4959930;29;20475;-67
2021/12/06 09:34:13;;;;;;;29.67;22.10;;;5.40;99.90;;;;;;4959970;29;20463;-68
2021/12/06 09:36:40;;;;;;;31.47;22.33;;;5.40;99.90;;;;;;4959682;29;20460;-68
2021/12/06 09:39:07;;;;;;;33.90;23.60;;;5.50;99.90;;;;;;4960015;29;20467;-67
2021/12/06 09:41:35;;;;;;;43.60;28.50;;;5.50;99.90;;;;;;4971479;29;20995;-68
2021/12/06 09:44:03;;;;;;;47.57;32.03;;;5.50;99.90;;;;;;4965064;29;20547;-67
2021/12/06 09:46:35;;;;;;;40.00;28.20;;;5.60;99.90;;;;;;4959256;29;20466;-68
2021/12/06 09:49:04;;;;;;;30.03;21.90;;;5.70;99.90;;;;;;4958998;29;20464;-68
2021/12/06 09:51:32;;;;;;;29.50;23.20;;;5.70;99.90;;;;;;4959438;29;20483;-68
2021/12/06 09:53:59;;;;;;;24.60;19.93;;;5.60;99.90;;;;;;4959273;29;20464;-68
2021/12/06 09:56:29;;;;;;;29.87;21.70;;;5.70;99.90;;;;;;4959538;28;20967;-68
2021/12/06 09:58:56;;;;;;;25.43;19.60;;;5.70;99.90;;;;;;4959583;29;20460;-67
2021/12/06 10:01:26;;;;;;;25.43;18.90;;;5.70;99.90;;;;;;4958665;29;20994;-67
2021/12/06 10:03:57;;;;;;;24.03;18.57;;;5.70;99.90;;;;;;4959320;29;20467;-67
2021/12/06 10:06:26;;;;;;;20.77;17.83;;;5.80;99.90;;;;;;4959393;28;20535;-68
2021/12/06 10:08:56;;;;;;;26.60;19.63;;;5.90;99.90;;;;;;4958822;29;20467;-67
2021/12/06 10:11:25;;;;;;;24.07;18.37;;;5.90;99.90;;;;;;4959280;29;20483;-68
2021/12/06 10:13:53;;;;;;;26.77;19.60;;;5.90;99.90;;;;;;4959036;29;20464;-68
2021/12/06 10:16:21;;;;;;;28.07;20.27;;;6.00;99.90;;;;;;4959133;29;20464;-68
2021/12/06 10:18:48;;;;;;;24.37;18.47;;;6.20;99.90;;;;;;4958998;29;20550;-69
2021/12/06 10:21:16;;;;;;;24.90;18.67;;;6.20;99.90;;;;;;4958844;29;20484;-68
2021/12/06 10:23:43;;;;;;;21.73;17.07;;;6.30;99.90;;;;;;4959091;29;20464;-68
2021/12/06 10:26:15;;;;;;;20.70;16.87;;;6.30;99.90;;;;;;4962303;29;20456;-68
2021/12/06 10:28:44;;;;;;;22.80;17.10;;;6.30;99.90;;;;;;4959149;28;20808;-68
2021/12/06 10:31:13;;;;;;;18.67;15.57;;;6.30;99.90;;;;;;4958856;29;20479;-68
2021/12/06 10:33:42;;;;;;;23.30;18.07;;;6.20;99.90;;;;;;4959042;28;20464;-68
2021/12/06 10:36:15;;;;;;;20.33;16.37;;;6.30;99.90;;;;;;4958379;29;20464;-68
2021/12/06 10:38:47;;;;;;;19.60;16.57;;;6.20;99.90;;;;;;4958867;29;20800;-67
2021/12/06 10:41:19;;;;;;;19.93;15.60;;;6.10;99.90;;;;;;4958393;29;20487;-68
2021/12/06 10:43:55;;;;;;;18.23;14.80;;;6.00;99.90;;;;;;4958760;29;20445;-68
2021/12/06 10:46:23;;;;;;;19.60;15.97;;;6.10;99.90;;;;;;4958579;29;20464;-68
2021/12/06 10:48:53;;;;;;;20.60;15.50;;;6.10;99.90;;;;;;4958056;29;20464;-68
2021/12/06 10:51:23;;;;;;;19.20;15.03;;;6.20;99.90;;;;;;4958720;29;20476;-68
2021/12/06 10:53:59;;;;;;;19.00;15.10;;;6.10;99.90;;;;;;4958259;29;20819;-67
2021/12/06 10:56:37;;;;;;;16.90;14.10;;;6.30;99.90;;;;;;4958416;29;20448;-68
2021/12/06 10:59:07;;;;;;;20.10;14.50;;;6.20;99.90;;;;;;4958496;28;20440;-67
2021/12/06 11:01:34;;;;;;;16.90;13.50;;;6.40;99.90;;;;;;4957952;29;20527;-68
2021/12/06 11:04:03;;;;;;;16.07;14.00;;;6.40;99.90;;;;;;4958211;29;20464;-68
2021/12/06 11:06:35;;;;;;;16.80;15.10;;;6.50;99.90;;;;;;4958332;29;20459;-68
2021/12/06 11:09:06;;;;;;;16.40;14.47;;;6.50;99.90;;;;;;4958294;29;20440;-67
2021/12/06 11:11:37;;;;;;;17.00;14.73;;;6.60;99.90;;;;;;4958109;29;20472;-67
2021/12/06 11:14:07;;;;;;;17.73;14.07;;;6.80;99.90;;;;;;4957625;28;20904;-67
2021/12/06 11:16:35;;;;;;;14.87;12.73;;;7.00;99.90;;;;;;4957355;29;20460;-68
2021/12/06 11:19:06;;;;;;;16.03;13.50;;;7.10;99.90;;;;;;4958257;29;21015;-67
2021/12/06 11:21:36;;;;;;;14.27;12.23;;;7.10;99.90;;;;;;4957422;29;20491;-68
2021/12/06 11:24:18;;;;;;;20.53;15.67;;;7.10;99.90;;;;;;4957323;29;20455;-68
2021/12/06 11:26:54;;;;;;;19.67;15.70;;;7.10;99.90;;;;;;4957107;29;20954;-67
2021/12/06 11:29:24;;;;;;;21.03;14.80;;;7.10;99.90;;;;;;4957462;29;20446;-68
2021/12/06 11:32:08;;;;;;;21.50;16.43;;;7.30;99.90;;;;;;4957012;29;20852;-68
2021/12/06 11:34:37;;;;;;;19.37;16.07;;;7.40;99.90;;;;;;4956778;28;20441;-68
2021/12/06 11:37:12;;;;;;;17.30;15.50;;;7.30;99.90;;;;;;4956629;29;20460;-68
2021/12/06 11:39:38;;;;;;;22.87;15.67;;;7.30;99.90;;;;;;4956820;29;20937;-68
2021/12/06 11:42:07;;;;;;;18.07;14.30;;;7.30;99.90;;;;;;4956824;29;20488;-68
2021/12/06 11:44:38;;;;;;;17.73;15.40;;;7.30;99.90;;;;;;4956798;29;20467;-68
2021/12/06 11:47:08;;;;;;;18.33;14.27;;;7.30;99.90;;;;;;4955880;28;20450;-69
2021/12/06 11:49:39;;;;;;;12.80;11.40;;;7.30;99.90;;;;;;4956789;29;20478;-68
2021/12/06 11:52:09;;;;;;;15.47;13.83;;;7.30;99.90;;;;;;4957423;29;20472;-68
2021/12/06 11:54:43;;;;;;;20.97;16.60;;;7.30;99.90;;;;;;4957340;29;20448;-68
2021/12/06 11:57:22;;;;;;;17.80;15.90;;;7.30;99.90;;;;;;4957811;29;20443;-67
2021/12/06 11:59:53;;;;;;;22.10;16.50;;;7.10;99.90;;;;;;4957346;29;20444;-67
2021/12/06 12:02:42;;;;;;;19.23;15.77;;;7.10;99.90;;;;;;4956752;29;21014;-67
2021/12/06 12:05:18;;;;;;;16.70;14.90;;;7.00;99.90;;;;;;4956621;29;20447;-67
2021/12/06 12:08:04;;;;;;;21.03;16.40;;;6.80;99.90;;;;;;4956485;29;20447;-68
2021/12/06 12:10:38;;;;;;;20.40;15.73;;;6.80;99.90;;;;;;4957075;29;20457;-68
2021/12/06 12:13:12;;;;;;;16.43;14.53;;;6.90;99.90;;;;;;4956836;29;20444;-68
2021/12/06 12:15:40;;;;;;;15.37;13.40;;;6.70;99.90;;;;;;4956759;29;20868;-68
2021/12/06 12:18:07;;;;;;;16.17;13.77;;;6.80;99.90;;;;;;4957402;29;20460;-68
2021/12/06 12:20:36;;;;;;;14.50;13.00;;;6.80;99.90;;;;;;4956585;29;20491;-68
2021/12/06 12:23:08;;;;;;;15.40;13.70;;;6.80;99.90;;;;;;4956582;29;20510;-68
2021/12/06 12:25:38;;;;;;;17.40;15.60;;;6.90;99.90;;;;;;4956672;29;20443;-68
2021/12/06 12:28:17;;;;;;;18.20;15.63;;;6.90;99.90;;;;;;4956811;28;20915;-68
2021/12/06 12:30:44;;;;;;;18.53;13.10;;;6.90;99.90;;;;;;4955971;29;20479;-68
2021/12/06 12:33:12;;;;;;;15.80;13.87;;;6.80;99.90;;;;;;4956935;29;20460;-68
2021/12/06 12:35:41;;;;;;;18.13;15.13;;;6.90;99.90;;;;;;4979014;29;20466;-68
2021/12/06 12:38:10;;;;;;;19.40;14.20;;;6.90;99.90;;;;;;4963230;29;20935;-68
2021/12/06 12:40:43;;;;;;;14.80;13.23;;;6.80;99.90;;;;;;4956191;29;20480;-68
2021/12/06 12:43:14;;;;;;;16.73;13.10;;;6.80;99.90;;;;;;4955913;29;20467;-68
2021/12/06 12:45:43;;;;;;;15.20;13.60;;;6.80;99.90;;;;;;4956264;29;20445;-67
2021/12/06 12:48:12;;;;;;;19.07;14.20;;;6.70;99.90;;;;;;4956354;28;20462;-67
2021/12/06 12:50:39;;;;;;;17.53;15.63;;;6.90;99.90;;;;;;4956142;29;20557;-67
2021/12/06 12:53:08;;;;;;;16.63;14.73;;;7.00;99.90;;;;;;4956458;29;20460;-67
2021/12/06 12:55:37;;;;;;;18.43;14.13;;;7.10;99.90;;;;;;4956160;29;20444;-69
2021/12/06 12:58:10;;;;;;;19.87;15.40;;;7.30;99.90;;;;;;4957927;28;20482;-68
2021/12/06 13:00:48;;;;;;;20.97;16.97;;;7.20;99.90;;;;;;4960329;29;20484;-69
2021/12/06 13:03:32;;;;;;;23.27;18.40;;;7.20;99.90;;;;;;4960424;29;20483;-68
2021/12/06 13:06:19;;;;;;;21.47;17.47;;;7.10;99.90;;;;;;4960118;29;20463;-69
2021/12/06 13:08:48;;;;;;;23.10;18.80;;;7.20;99.90;;;;;;4961731;29;20451;-68
2021/12/06 13:11:14;;;;;;;21.67;17.63;;;7.20;99.90;;;;;;4960912;29;20475;-69
2021/12/06 13:13:47;;;;;;;24.73;17.70;;;7.10;99.90;;;;;;4960570;29;20990;-69
2021/12/06 13:16:33;;;;;;;20.30;17.73;;;7.10;99.90;;;;;;4960123;29;20436;-68
2021/12/06 13:21:50;;;;;;;25.83;18.93;;;6.90;99.90;;;;;;4956634;29;20997;-69
2021/12/06 13:24:33;;;;;;;24.70;19.07;;;6.80;99.90;;;;;;4960755;29;20446;-69
2021/12/06 13:27:02;;;;;;;29.80;20.60;;;6.70;99.90;;;;;;4965569;29;20912;-68
2021/12/06 13:29:41;;;;;;;28.57;19.93;;;6.50;99.90;;;;;;4961867;29;20483;-68
2021/12/06 13:32:28;;;;;;;29.17;19.10;;;6.40;99.90;;;;;;4961704;29;20475;-68
2021/12/06 13:34:55;;;;;;;22.87;16.77;;;6.40;99.90;;;;;;4961311;28;20436;-68
2021/12/06 13:37:27;;;;;;;18.80;15.83;;;6.40;99.90;;;;;;4959418;29;20452;-68
2021/12/06 13:39:54;;;;;;;20.57;16.47;;;6.30;99.90;;;;;;4959376;29;20443;-69
2021/12/06 13:42:36;;;;;;;22.60;18.17;;;6.20;99.90;;;;;;4959201;29;20983;-68
2021/12/06 13:45:06;;;;;;;25.80;19.30;;;6.20;99.90;;;;;;4959465;28;20432;-68
2021/12/06 13:47:35;;;;;;;27.13;18.97;;;6.20;99.90;;;;;;4959102;29;20463;-68
2021/12/06 13:50:08;;;;;;;28.10;20.70;;;6.20;99.90;;;;;;4958796;29;20456;-68
2021/12/06 13:52:38;;;;;;;25.87;21.10;;;6.10;99.90;;;;;;4958202;29;20975;-68
2021/12/06 13:55:22;;;;;;;25.90;20.07;;;6.10;99.90;;;;;;4958852;29;20440;-68
2021/12/06 13:57:51;;;;;;;22.30;18.43;;;6.10;99.90;;;;;;4959049;29;20446;-68
2021/12/06 14:00:24;;;;;;;25.40;19.90;;;6.10;99.90;;;;;;4958297;28;20828;-69
2021/12/06 14:02:54;;;;;;;23.90;19.63;;;6.10;99.90;;;;;;4958240;29;20467;-68
2021/12/06 14:05:22;;;;;;;24.37;19.97;;;6.10;99.90;;;;;;4958834;29;20466;-68
2021/12/06 14:07:50;;;;;;;24.50;18.93;;;6.10;99.90;;;;;;4958726;29;20455;-68
2021/12/06 14:10:17;;;;;;;22.60;19.40;;;6.00;99.90;;;;;;4957204;28;20467;-69
2021/12/06 14:12:45;;;;;;;29.40;21.30;;;6.00;99.90;;;;;;4958299;29;20940;-68
2021/12/06 14:15:18;;;;;;;30.30;21.27;;;6.00;99.90;;;;;;4958379;29;20952;-68
2021/12/06 14:17:46;;;;;;;27.00;19.90;;;6.00;99.90;;;;;;4959185;29;20530;-68
2021/12/06 14:20:15;;;;;;;25.43;20.73;;;6.00;99.90;;;;;;4959534;29;20459;-69
2021/12/06 14:22:43;;;;;;;24.27;18.80;;;6.00;99.90;;;;;;4959419;28;20905;-68
2021/12/06 14:25:13;;;;;;;22.37;18.20;;;5.90;99.90;;;;;;4959104;29;20455;-68
2021/12/06 14:27:40;;;;;;;23.53;18.80;;;5.90;99.90;;;;;;4959279;29;20541;-68
2021/12/06 14:30:11;;;;;;;23.40;19.47;;;5.90;99.90;;;;;;4958758;29;20467;-68
2021/12/06 14:32:38;;;;;;;26.00;19.70;;;5.80;99.90;;;;;;4958924;29;20476;-68
2021/12/06 14:35:05;;;;;;;24.13;18.77;;;5.80;99.90;;;;;;4958799;29;20461;-68
2021/12/06 14:37:33;;;;;;;25.30;18.73;;;5.80;99.90;;;;;;4958661;28;20452;-68
2021/12/06 14:40:00;;;;;;;28.47;19.93;;;5.70;99.90;;;;;;4958927;29;20483;-68
2021/12/06 14:42:28;;;;;;;25.33;18.80;;;5.70;99.90;;;;;;4958204;29;20991;-69
2021/12/06 14:44:57;;;;;;;24.20;17.47;;;5.70;99.90;;;;;;4958665;29;20444;-67
2021/12/06 14:47:34;;;;;;;22.67;18.17;;;5.70;99.90;;;;;;4958628;29;20507;-68
2021/12/06 14:50:07;;;;;;;19.93;17.60;;;5.70;99.90;;;;;;4958509;29;20437;-69
2021/12/06 14:52:38;;;;;;;23.40;16.40;;;5.70;99.90;;;;;;4958600;29;20476;-68
2021/12/06 14:55:24;;;;;;;24.27;17.90;;;5.70;99.90;;;;;;4958459;29;20444;-68
2021/12/06 14:57:53;;;;;;;22.13;18.40;;;5.70;99.90;;;;;;4958705;29;20451;-68
2021/12/06 15:00:22;;;;;;;27.90;20.37;;;5.60;99.90;;;;;;4960116;29;20782;-68
2021/12/06 15:02:53;;;;;;;23.03;18.40;;;5.60;99.90;;;;;;4962487;28;20469;-68
2021/12/06 15:05:24;;;;;;;23.50;17.70;;;5.60;99.90;;;;;;4958470;29;20448;-68
2021/12/06 15:07:55;;;;;;;26.20;18.67;;;5.60;99.90;;;;;;4958236;29;20444;-68
2021/12/06 15:10:23;;;;;;;22.27;18.33;;;5.50;99.90;;;;;;4958238;29;20451;-68
2021/12/06 15:12:50;;;;;;;27.23;18.83;;;5.50;99.90;;;;;;4957661;29;20469;-68
2021/12/06 15:15:27;;;;;;;22.00;17.50;;;5.50;99.90;;;;;;4957687;29;20456;-68
2021/12/06 15:17:55;;;;;;;24.30;18.10;;;5.50;99.90;;;;;;4957587;29;20452;-68
2021/12/06 15:20:23;;;;;;;21.70;17.90;;;5.50;99.90;;;;;;4958233;28;20440;-68
2021/12/06 15:22:52;;;;;;;22.50;16.67;;;5.50;99.90;;;;;;4957451;29;20491;-68
2021/12/06 15:25:19;;;;;;;25.10;18.40;;;5.50;99.90;;;;;;4957731;29;20606;-67
2021/12/06 15:27:46;;;;;;;26.43;19.23;;;5.50;99.90;;;;;;4958489;29;20550;-68
2021/12/06 15:30:16;;;;;;;23.90;18.90;;;5.50;99.90;;;;;;4959921;29;20448;-68
2021/12/06 15:32:46;;;;;;;24.23;19.37;;;5.40;99.90;;;;;;4957966;29;20456;-67
2021/12/06 15:35:13;;;;;;;26.77;19.07;;;5.50;99.90;;;;;;4957975;29;20445;-68
2021/12/06 15:37:40;;;;;;;27.77;18.57;;;5.50;99.90;;;;;;4957578;29;20820;-67
2021/12/06 15:40:11;;;;;;;24.50;18.87;;;5.40;99.90;;;;;;4957575;29;20467;-67
2021/12/06 15:42:38;;;;;;;23.47;18.53;;;5.50;99.90;;;;;;4957182;29;20983;-68
2021/12/06 15:45:07;;;;;;;26.07;20.33;;;5.40;99.90;;;;;;4957437;29;20456;-67
2021/12/06 15:47:38;;;;;;;25.30;19.73;;;5.40;99.90;;;;;;4957186;29;20826;-68
2021/12/06 15:50:10;;;;;;;28.60;20.43;;;5.40;99.90;;;;;;4957568;29;20452;-67
2021/12/06 15:52:41;;;;;;;26.57;18.87;;;5.40;99.90;;;;;;4957062;28;20531;-67
2021/12/06 15:55:12;;;;;;;25.87;19.80;;;5.30;99.90;;;;;;4957061;29;20566;-67
2021/12/06 15:57:41;;;;;;;20.27;16.00;;;5.20;99.90;;;;;;4957122;29;20448;-67
2021/12/06 16:00:18;;;;;;;23.53;16.23;;;5.00;99.90;;;;;;4957027;29;20459;-67
2021/12/06 16:02:46;;;;;;;19.20;16.33;;;4.90;99.90;;;;;;4957307;28;20471;-67
2021/12/06 16:05:16;;;;;;;21.40;18.67;;;4.90;99.90;;;;;;4957173;29;20448;-67
2021/12/06 16:07:43;;;;;;;27.00;18.93;;;4.80;99.90;;;;;;4957621;29;20539;-67
2021/12/06 16:10:15;;;;;;;26.73;19.77;;;4.70;99.90;;;;;;4956914;29;20440;-67
2021/12/06 16:12:53;;;;;;;28.83;20.43;;;4.70;99.90;;;;;;4956784;29;20478;-66
2021/12/06 16:15:24;;;;;;;24.10;19.63;;;4.70;99.90;;;;;;4956846;29;20448;-67
2021/12/06 16:17:55;;;;;;;26.47;19.93;;;4.70;99.90;;;;;;4956524;29;20842;-67
2021/12/06 16:20:22;;;;;;;33.03;20.17;;;4.70;99.90;;;;;;4956788;29;20441;-67
2021/12/06 16:22:50;;;;;;;23.43;18.40;;;4.70;99.90;;;;;;4956612;29;20476;-67
2021/12/06 16:25:20;;;;;;;26.73;19.80;;;4.70;99.90;;;;;;4956771;29;20451;-67
2021/12/06 16:27:58;;;;;;;28.00;19.63;;;4.70;99.90;;;;;;4956760;29;20843;-67
2021/12/06 16:30:25;;;;;;;25.90;19.83;;;4.60;99.90;;;;;;4956829;29;20455;-67
2021/12/06 16:32:55;;;;;;;26.43;18.93;;;4.70;99.90;;;;;;4956149;28;20490;-67
2021/12/06 16:35:23;;;;;;;23.37;18.77;;;4.60;99.90;;;;;;4956949;29;20482;-66
2021/12/06 16:37:50;;;;;;;24.00;19.80;;;4.60;99.90;;;;;;4956102;29;20832;-66
2021/12/06 16:40:19;;;;;;;27.27;21.23;;;4.60;99.90;;;;;;4955897;29;20467;-66
2021/12/06 16:42:51;;;;;;;23.37;17.90;;;4.60;99.90;;;;;;4956098;29;20890;-66
2021/12/06 16:45:21;;;;;;;28.63;18.93;;;4.50;99.90;;;;;;4957000;29;20440;-66
2021/12/06 16:47:50;;;;;;;28.77;20.50;;;4.50;99.90;;;;;;4956503;29;20452;-66
2021/12/06 16:50:19;;;;;;;23.30;18.07;;;4.50;99.90;;;;;;4955421;29;20463;-66
2021/12/06 16:52:50;;;;;;;24.90;17.57;;;4.50;99.90;;;;;;4956262;28;20463;-66
2021/12/06 16:55:23;;;;;;;24.93;19.20;;;4.40;99.90;;;;;;4956525;29;20449;-66
2021/12/06 16:57:51;;;;;;;27.33;19.03;;;4.40;99.90;;;;;;4956201;29;20535;-66
2021/12/06 17:00:22;;;;;;;28.43;19.70;;;4.40;99.90;;;;;;4956152;28;20829;-65
2021/12/06 17:02:57;;;;;;;28.03;19.30;;;4.30;99.90;;;;;;4956369;29;20437;-65
2021/12/06 17:05:24;;;;;;;25.93;19.53;;;4.30;99.90;;;;;;4956182;28;20451;-67
2021/12/06 17:08:00;;;;;;;25.60;20.50;;;4.20;99.90;;;;;;4955911;29;20467;-66
2021/12/06 17:10:31;;;;;;;27.93;19.57;;;4.20;99.90;;;;;;4955785;29;20444;-65
2021/12/06 17:13:00;;;;;;;25.30;19.87;;;4.20;99.90;;;;;;4955951;29;20479;-66
2021/12/06 17:15:29;;;;;;;25.87;19.20;;;4.10;99.90;;;;;;4956275;29;20456;-66
2021/12/06 17:17:59;;;;;;;26.37;19.50;;;4.10;99.90;;;;;;4956601;29;20467;-66
2021/12/06 17:20:30;;;;;;;29.57;18.87;;;4.00;99.90;;;;;;4957231;29;20452;-70
2021/12/06 17:23:00;;;;;;;29.70;21.10;;;4.00;99.90;;;;;;4957738;29;20472;-69
2021/12/06 17:25:31;;;;;;;26.83;20.57;;;3.90;99.90;;;;;;4958678;29;20455;-72
2021/12/06 17:28:10;;;;;;;30.63;23.50;;;3.90;99.90;;;;;;4959938;29;20447;-72
2021/12/06 17:30:45;;;;;;;30.10;21.10;;;3.90;99.90;;;;;;4956186;29;20479;-72
2021/12/06 17:33:12;;;;;;;31.20;23.07;;;3.90;99.90;;;;;;4956289;29;20462;-72
2021/12/06 17:35:38;;;;;;;30.60;21.50;;;3.80;99.90;;;;;;4956282;28;20478;-71
2021/12/06 17:38:06;;;;;;;28.60;21.07;;;3.80;99.90;;;;;;4956167;29;20467;-71
2021/12/06 17:40:34;;;;;;;32.83;22.33;;;3.80;99.90;;;;;;4956497;29;20547;-71
2021/12/06 17:43:01;;;;;;;30.07;21.43;;;3.70;99.90;;;;;;4956122;28;20460;-71
2021/12/06 17:45:28;;;;;;;26.40;18.70;;;3.70;99.90;;;;;;4959400;29;20943;-70
2021/12/06 17:47:55;;;;;;;18.43;13.93;;;3.70;99.90;;;;;;4959650;29;20459;-70
2021/12/06 17:50:22;;;;;;;16.73;13.40;;;3.60;99.90;;;;;;4959172;29;20967;-70
2021/12/06 17:52:48;;;;;;;14.47;12.30;;;3.60;99.90;;;;;;4959397;29;20482;-70
2021/12/06 17:55:15;;;;;;;13.27;11.33;;;3.60;99.90;;;;;;4959311;29;20459;-70